DNEN

Akanu Ibiam International Airport

Airport
ICAO code
DNEN
IATA Code
ENU
Summary
ICAO Region
AFI
ICAO Territory
Location

Emene, Enugu State

Serving
Enugu
Elevation
466 ft
Coordinates
6° 28' 32" N , 7° 33' 43" E
KCC
Metar
Observation
DNEN 261000Z 09003KT 9999 BKN011 29/23 Q1013 NOSIG
Station
Enugu
Date/Time
2022-09-26 10:00:00
Wind direction
90°
Wind speed
03 kts
Lowest cloud amount
broken clouds
Temperature
29°C
Dew point
23°C
Humidity
70%
QNH
1013 hPa
Weather condition
n/a

Akanu Ibiam International Airport, also known as Enugu Airport, is an airport serving Enugu, a city in the Enugu State of Nigeria.

Climatology

Tropical Savanna climate (Köppen climate classification Aw)

Runways

Designator Length Width Surface Rops
8/26 2402 45 ASP No/No

Airport map

Aerial View

SKYbrary Partners:

Safety knowledge contributed by: